<?xml version="1.0" encoding="utf-8"?>
<gpx xmlns:xsi="http://www.w3.org/2001/XMLSchema-instance" xmlns:xsd="http://www.w3.org/2001/XMLSchema" version="1.1" creator="Shapelink.com" xmlns="http://www.topografix.com/GPX/1/1" xmlns:gpxtpx="http://www.garmin.com/xmlschemas/TrackPointExtension/v1">
  <metadata>
    <name>Cykling - Mtb 4.43 km, 2017-08-04</name>
    <desc></desc>
    <author><name>Alexander Engvall</name></author> 
    <time>2017-08-04T15:18:53Z</time>
  </metadata>
  <trk>
    <name>Cykling - Mtb 4.43 km, 2017-08-04</name>
    <trkseg>
      <trkpt lat="59.219815051239" lon="17.907301713328">
        <ele>148.6</ele>
        <time>2017-08-04T15:18:53Z</time>
      </trkpt>
      <trkpt lat="59.21982754027" lon="17.907358291153">
        <ele>147.6</ele>
        <time>2017-08-04T15:18:54Z</time>
      </trkpt>
      <trkpt lat="59.219847237735" lon="17.907406403259">
        <ele>146.4</ele>
        <time>2017-08-04T15:18:55Z</time>
      </trkpt>
      <trkpt lat="59.219869365951" lon="17.907456694659">
        <ele>144</ele>
        <time>2017-08-04T15:18:56Z</time>
      </trkpt>
      <trkpt lat="59.219979085022" lon="17.907709911858">
        <ele>144</ele>
        <time>2017-08-04T15:19:01Z</time>
      </trkpt>
      <trkpt lat="59.2200848646" lon="17.907955501528">
        <ele>144</ele>
        <time>2017-08-04T15:19:06Z</time>
      </trkpt>
      <trkpt lat="59.220142364434" lon="17.9080802242">
        <ele>144</ele>
        <time>2017-08-04T15:19:09Z</time>
      </trkpt>
      <trkpt lat="59.220185195943" lon="17.90815230854">
        <ele>144</ele>
        <time>2017-08-04T15:19:11Z</time>
      </trkpt>
      <trkpt lat="59.22030698495" lon="17.90841801477">
        <ele>144</ele>
        <time>2017-08-04T15:19:18Z</time>
      </trkpt>
      <trkpt lat="59.22042768431" lon="17.908572577006">
        <ele>144</ele>
        <time>2017-08-04T15:19:24Z</time>
      </trkpt>
      <trkpt lat="59.220451069811" lon="17.908564614201">
        <ele>144</ele>
        <time>2017-08-04T15:19:25Z</time>
      </trkpt>
      <trkpt lat="59.220615103594" lon="17.908618006904">
        <ele>144</ele>
        <time>2017-08-04T15:19:32Z</time>
      </trkpt>
      <trkpt lat="59.220699425508" lon="17.908776843909">
        <ele>144</ele>
        <time>2017-08-04T15:19:37Z</time>
      </trkpt>
      <trkpt lat="59.220706131028" lon="17.90881447864">
        <ele>144</ele>
        <time>2017-08-04T15:19:38Z</time>
      </trkpt>
      <trkpt lat="59.220730522357" lon="17.909004915408">
        <ele>144</ele>
        <time>2017-08-04T15:19:43Z</time>
      </trkpt>
      <trkpt lat="59.220759020817" lon="17.909250840354">
        <ele>144</ele>
        <time>2017-08-04T15:19:49Z</time>
      </trkpt>
      <trkpt lat="59.220801768507" lon="17.909530376719">
        <ele>145.4</ele>
        <time>2017-08-04T15:19:56Z</time>
      </trkpt>
      <trkpt lat="59.220807552018" lon="17.90956801145">
        <ele>146.8</ele>
        <time>2017-08-04T15:19:57Z</time>
      </trkpt>
      <trkpt lat="59.220811407692" lon="17.90960824457">
        <ele>148.2</ele>
        <time>2017-08-04T15:19:58Z</time>
      </trkpt>
      <trkpt lat="59.22082079542" lon="17.909647890957">
        <ele>149.4</ele>
        <time>2017-08-04T15:19:59Z</time>
      </trkpt>
      <trkpt lat="59.220829680234" lon="17.909683094937">
        <ele>150.8</ele>
        <time>2017-08-04T15:20:00Z</time>
      </trkpt>
      <trkpt lat="59.220853568649" lon="17.909809074894">
        <ele>150.8</ele>
        <time>2017-08-04T15:20:03Z</time>
      </trkpt>
      <trkpt lat="59.220942584427" lon="17.910090622915">
        <ele>150.8</ele>
        <time>2017-08-04T15:20:09Z</time>
      </trkpt>
      <trkpt lat="59.221021206649" lon="17.910487170604">
        <ele>150.8</ele>
        <time>2017-08-04T15:20:16Z</time>
      </trkpt>
      <trkpt lat="59.220949122309" lon="17.910751116635">
        <ele>150.8</ele>
        <time>2017-08-04T15:20:21Z</time>
      </trkpt>
      <trkpt lat="59.220873517571" lon="17.91086720595">
        <ele>150.8</ele>
        <time>2017-08-04T15:20:24Z</time>
      </trkpt>
      <trkpt lat="59.220807216742" lon="17.910980193962">
        <ele>150.8</ele>
        <time>2017-08-04T15:20:27Z</time>
      </trkpt>
      <trkpt lat="59.220636645077" lon="17.911237853568">
        <ele>150.8</ele>
        <time>2017-08-04T15:20:34Z</time>
      </trkpt>
      <trkpt lat="59.220606973151" lon="17.911319744731">
        <ele>150.8</ele>
        <time>2017-08-04T15:20:36Z</time>
      </trkpt>
      <trkpt lat="59.220623569313" lon="17.911416890952">
        <ele>150.8</ele>
        <time>2017-08-04T15:20:38Z</time>
      </trkpt>
      <trkpt lat="59.220645446072" lon="17.911491573681">
        <ele>150.8</ele>
        <time>2017-08-04T15:20:40Z</time>
      </trkpt>
      <trkpt lat="59.220712585091" lon="17.911684776476">
        <ele>150.8</ele>
        <time>2017-08-04T15:20:45Z</time>
      </trkpt>
      <trkpt lat="59.220793638064" lon="17.911944447738">
        <ele>150.8</ele>
        <time>2017-08-04T15:20:51Z</time>
      </trkpt>
      <trkpt lat="59.220939147848" lon="17.912287602724">
        <ele>150.8</ele>
        <time>2017-08-04T15:20:59Z</time>
      </trkpt>
      <trkpt lat="59.221073677343" lon="17.912645090759">
        <ele>150.8</ele>
        <time>2017-08-04T15:21:07Z</time>
      </trkpt>
      <trkpt lat="59.221188844649" lon="17.912926303504">
        <ele>150.8</ele>
        <time>2017-08-04T15:21:14Z</time>
      </trkpt>
      <trkpt lat="59.221298060806" lon="17.913245234799">
        <ele>150.8</ele>
        <time>2017-08-04T15:21:22Z</time>
      </trkpt>
      <trkpt lat="59.22136980987" lon="17.913407424564">
        <ele>150.8</ele>
        <time>2017-08-04T15:21:28Z</time>
      </trkpt>
      <trkpt lat="59.221369474594" lon="17.913425697106">
        <ele>150.8</ele>
        <time>2017-08-04T15:21:32Z</time>
      </trkpt>
      <trkpt lat="59.221361763246" lon="17.913458218878">
        <ele>150.8</ele>
        <time>2017-08-04T15:21:34Z</time>
      </trkpt>
      <trkpt lat="59.221352040242" lon="17.913508258821">
        <ele>150.8</ele>
        <time>2017-08-04T15:21:37Z</time>
      </trkpt>
      <trkpt lat="59.22135472245" lon="17.913509851382">
        <ele>150.8</ele>
        <time>2017-08-04T15:21:38Z</time>
      </trkpt>
      <trkpt lat="59.221333013329" lon="17.913539774765">
        <ele>150.8</ele>
        <time>2017-08-04T15:21:41Z</time>
      </trkpt>
      <trkpt lat="59.221300994471" lon="17.913594257115">
        <ele>150.8</ele>
        <time>2017-08-04T15:21:43Z</time>
      </trkpt>
      <trkpt lat="59.221280458816" lon="17.913762481848">
        <ele>150.8</ele>
        <time>2017-08-04T15:21:47Z</time>
      </trkpt>
      <trkpt lat="59.221267299233" lon="17.914050986846">
        <ele>150.8</ele>
        <time>2017-08-04T15:21:53Z</time>
      </trkpt>
      <trkpt lat="59.221240560972" lon="17.914121478625">
        <ele>150.8</ele>
        <time>2017-08-04T15:21:55Z</time>
      </trkpt>
      <trkpt lat="59.221214660901" lon="17.914175122785">
        <ele>150.8</ele>
        <time>2017-08-04T15:21:57Z</time>
      </trkpt>
      <trkpt lat="59.221114916291" lon="17.914391459624">
        <ele>150.8</ele>
        <time>2017-08-04T15:22:03Z</time>
      </trkpt>
      <trkpt lat="59.220990445076" lon="17.914672504731">
        <ele>150.8</ele>
        <time>2017-08-04T15:22:10Z</time>
      </trkpt>
      <trkpt lat="59.220859855074" lon="17.914897474927">
        <ele>150.8</ele>
        <time>2017-08-04T15:22:15Z</time>
      </trkpt>
      <trkpt lat="59.220736808782" lon="17.915290586037">
        <ele>150.8</ele>
        <time>2017-08-04T15:22:22Z</time>
      </trkpt>
      <trkpt lat="59.220687020296" lon="17.915738514773">
        <ele>150.8</ele>
        <time>2017-08-04T15:22:29Z</time>
      </trkpt>
      <trkpt lat="59.220633208498" lon="17.916206392431">
        <ele>150.8</ele>
        <time>2017-08-04T15:22:37Z</time>
      </trkpt>
      <trkpt lat="59.220623736951" lon="17.916252325243">
        <ele>151.6</ele>
        <time>2017-08-04T15:22:38Z</time>
      </trkpt>
      <trkpt lat="59.220616612336" lon="17.916312339647">
        <ele>152.2</ele>
        <time>2017-08-04T15:22:39Z</time>
      </trkpt>
      <trkpt lat="59.220608314255" lon="17.916367073454">
        <ele>152.6</ele>
        <time>2017-08-04T15:22:40Z</time>
      </trkpt>
      <trkpt lat="59.220602446925" lon="17.916414766465">
        <ele>153</ele>
        <time>2017-08-04T15:22:41Z</time>
      </trkpt>
      <trkpt lat="59.220594651758" lon="17.91646966791">
        <ele>153</ele>
        <time>2017-08-04T15:22:42Z</time>
      </trkpt>
      <trkpt lat="59.220528099472" lon="17.916752557035">
        <ele>153</ele>
        <time>2017-08-04T15:22:48Z</time>
      </trkpt>
      <trkpt lat="59.220419553867" lon="17.917040642938">
        <ele>153</ele>
        <time>2017-08-04T15:22:53Z</time>
      </trkpt>
      <trkpt lat="59.22029022115" lon="17.917301403847">
        <ele>153</ele>
        <time>2017-08-04T15:22:59Z</time>
      </trkpt>
      <trkpt lat="59.220188716341" lon="17.917470969684">
        <ele>153.4</ele>
        <time>2017-08-04T15:23:05Z</time>
      </trkpt>
      <trkpt lat="59.22017287455" lon="17.917494103728">
        <ele>153.8</ele>
        <time>2017-08-04T15:23:06Z</time>
      </trkpt>
      <trkpt lat="59.220159379691" lon="17.917520339075">
        <ele>154.2</ele>
        <time>2017-08-04T15:23:07Z</time>
      </trkpt>
      <trkpt lat="59.220136580923" lon="17.91755428577">
        <ele>154.6</ele>
        <time>2017-08-04T15:23:08Z</time>
      </trkpt>
      <trkpt lat="59.220121074408" lon="17.917588316284">
        <ele>155</ele>
        <time>2017-08-04T15:23:09Z</time>
      </trkpt>
      <trkpt lat="59.220079416365" lon="17.917649504154">
        <ele>155</ele>
        <time>2017-08-04T15:23:11Z</time>
      </trkpt>
      <trkpt lat="59.220036333399" lon="17.917714044784">
        <ele>155.4</ele>
        <time>2017-08-04T15:23:13Z</time>
      </trkpt>
      <trkpt lat="59.220013953726" lon="17.917750170773">
        <ele>155.8</ele>
        <time>2017-08-04T15:23:14Z</time>
      </trkpt>
      <trkpt lat="59.219990316768" lon="17.917784117468">
        <ele>156.2</ele>
        <time>2017-08-04T15:23:15Z</time>
      </trkpt>
      <trkpt lat="59.219969278199" lon="17.917817812706">
        <ele>156.6</ele>
        <time>2017-08-04T15:23:16Z</time>
      </trkpt>
      <trkpt lat="59.219950502743" lon="17.917859051654">
        <ele>157.2</ele>
        <time>2017-08-04T15:23:17Z</time>
      </trkpt>
      <trkpt lat="59.219898954058" lon="17.917942954473">
        <ele>157.2</ele>
        <time>2017-08-04T15:23:19Z</time>
      </trkpt>
      <trkpt lat="59.219737770121" lon="17.918176977121">
        <ele>157.2</ele>
        <time>2017-08-04T15:23:25Z</time>
      </trkpt>
      <trkpt lat="59.219649341076" lon="17.918307315666">
        <ele>156.6</ele>
        <time>2017-08-04T15:23:28Z</time>
      </trkpt>
      <trkpt lat="59.219615142924" lon="17.918357104152">
        <ele>156.2</ele>
        <time>2017-08-04T15:23:29Z</time>
      </trkpt>
      <trkpt lat="59.219582704971" lon="17.918406892638">
        <ele>155.8</ele>
        <time>2017-08-04T15:23:30Z</time>
      </trkpt>
      <trkpt lat="59.219547249534" lon="17.918463135187">
        <ele>155.4</ele>
        <time>2017-08-04T15:23:31Z</time>
      </trkpt>
      <trkpt lat="59.219513973391" lon="17.91851988065">
        <ele>154.8</ele>
        <time>2017-08-04T15:23:32Z</time>
      </trkpt>
      <trkpt lat="59.219347425038" lon="17.918771253831">
        <ele>154.8</ele>
        <time>2017-08-04T15:23:37Z</time>
      </trkpt>
      <trkpt lat="59.219121868109" lon="17.919101081596">
        <ele>154.8</ele>
        <time>2017-08-04T15:23:44Z</time>
      </trkpt>
      <trkpt lat="59.21899186484" lon="17.919293027106">
        <ele>154.8</ele>
        <time>2017-08-04T15:23:49Z</time>
      </trkpt>
      <trkpt lat="59.218855156051" lon="17.919542723907">
        <ele>154.8</ele>
        <time>2017-08-04T15:23:55Z</time>
      </trkpt>
      <trkpt lat="59.218751555767" lon="17.919717318884">
        <ele>154.8</ele>
        <time>2017-08-04T15:24:00Z</time>
      </trkpt>
      <trkpt lat="59.218639405945" lon="17.919885962712">
        <ele>154.8</ele>
        <time>2017-08-04T15:24:05Z</time>
      </trkpt>
      <trkpt lat="59.218494901989" lon="17.920103975931">
        <ele>154.8</ele>
        <time>2017-08-04T15:24:11Z</time>
      </trkpt>
      <trkpt lat="59.218406640582" lon="17.920254431036">
        <ele>154.8</ele>
        <time>2017-08-04T15:24:15Z</time>
      </trkpt>
      <trkpt lat="59.218387697488" lon="17.920289886473">
        <ele>154.8</ele>
        <time>2017-08-04T15:24:16Z</time>
      </trkpt>
      <trkpt lat="59.218235314546" lon="17.92052483113">
        <ele>154.8</ele>
        <time>2017-08-04T15:24:22Z</time>
      </trkpt>
      <trkpt lat="59.218014451481" lon="17.920852060506">
        <ele>154.8</ele>
        <time>2017-08-04T15:24:30Z</time>
      </trkpt>
      <trkpt lat="59.21784019178" lon="17.920975442074">
        <ele>154.8</ele>
        <time>2017-08-04T15:24:36Z</time>
      </trkpt>
      <trkpt lat="59.217558727578" lon="17.921151126698">
        <ele>154.8</ele>
        <time>2017-08-04T15:24:45Z</time>
      </trkpt>
      <trkpt lat="59.217354125399" lon="17.921273083343">
        <ele>154.8</ele>
        <time>2017-08-04T15:24:52Z</time>
      </trkpt>
      <trkpt lat="59.217219847361" lon="17.921346424968">
        <ele>154.8</ele>
        <time>2017-08-04T15:24:57Z</time>
      </trkpt>
      <trkpt lat="59.217041480529" lon="17.92144348737">
        <ele>154.8</ele>
        <time>2017-08-04T15:25:03Z</time>
      </trkpt>
      <trkpt lat="59.216979957383" lon="17.921383221509">
        <ele>154.8</ele>
        <time>2017-08-04T15:25:05Z</time>
      </trkpt>
      <trkpt lat="59.216960511375" lon="17.921325554037">
        <ele>154.8</ele>
        <time>2017-08-04T15:25:06Z</time>
      </trkpt>
      <trkpt lat="59.216910890527" lon="17.921059512531">
        <ele>154.8</ele>
        <time>2017-08-04T15:25:11Z</time>
      </trkpt>
      <trkpt lat="59.216884152266" lon="17.920961276663">
        <ele>154.8</ele>
        <time>2017-08-04T15:25:13Z</time>
      </trkpt>
      <trkpt lat="59.216843164775" lon="17.920778132148">
        <ele>154.8</ele>
        <time>2017-08-04T15:25:17Z</time>
      </trkpt>
      <trkpt lat="59.216744258355" lon="17.920453501161">
        <ele>154.8</ele>
        <time>2017-08-04T15:25:23Z</time>
      </trkpt>
      <trkpt lat="59.216580978943" lon="17.91989115949">
        <ele>154.8</ele>
        <time>2017-08-04T15:25:33Z</time>
      </trkpt>
      <trkpt lat="59.216458770841" lon="17.919511962334">
        <ele>154.8</ele>
        <time>2017-08-04T15:25:39Z</time>
      </trkpt>
      <trkpt lat="59.216401438645" lon="17.919245585552">
        <ele>154.8</ele>
        <time>2017-08-04T15:25:44Z</time>
      </trkpt>
      <trkpt lat="59.216375790031" lon="17.91893143194">
        <ele>154.8</ele>
        <time>2017-08-04T15:25:50Z</time>
      </trkpt>
      <trkpt lat="59.216378304601" lon="17.918693469799">
        <ele>154.8</ele>
        <time>2017-08-04T15:25:55Z</time>
      </trkpt>
      <trkpt lat="59.216394565487" lon="17.918486101593">
        <ele>154.8</ele>
        <time>2017-08-04T15:26:01Z</time>
      </trkpt>
      <trkpt lat="59.216422477214" lon="17.918229112539">
        <ele>154.8</ele>
        <time>2017-08-04T15:26:08Z</time>
      </trkpt>
      <trkpt lat="59.216420465558" lon="17.917948570346">
        <ele>154.8</ele>
        <time>2017-08-04T15:26:14Z</time>
      </trkpt>
      <trkpt lat="59.216420633196" lon="17.917478597213">
        <ele>154.8</ele>
        <time>2017-08-04T15:26:21Z</time>
      </trkpt>
      <trkpt lat="59.216431613485" lon="17.91701784417">
        <ele>154.8</ele>
        <time>2017-08-04T15:26:27Z</time>
      </trkpt>
      <trkpt lat="59.216440749756" lon="17.9165710889">
        <ele>154.8</ele>
        <time>2017-08-04T15:26:33Z</time>
      </trkpt>
      <trkpt lat="59.216443431964" lon="17.916411078429">
        <ele>154.8</ele>
        <time>2017-08-04T15:26:35Z</time>
      </trkpt>
      <trkpt lat="59.216445108344" lon="17.916166578406">
        <ele>154.8</ele>
        <time>2017-08-04T15:26:38Z</time>
      </trkpt>
      <trkpt lat="59.216447874371" lon="17.916084351967">
        <ele>154.4</ele>
        <time>2017-08-04T15:26:39Z</time>
      </trkpt>
      <trkpt lat="59.216448461104" lon="17.916008747229">
        <ele>154</ele>
        <time>2017-08-04T15:26:40Z</time>
      </trkpt>
      <trkpt lat="59.216451143312" lon="17.915935824699">
        <ele>153.6</ele>
        <time>2017-08-04T15:26:41Z</time>
      </trkpt>
      <trkpt lat="59.216451646226" lon="17.915864327092">
        <ele>153.2</ele>
        <time>2017-08-04T15:26:42Z</time>
      </trkpt>
      <trkpt lat="59.21644879638" lon="17.915788722354">
        <ele>152.8</ele>
        <time>2017-08-04T15:26:43Z</time>
      </trkpt>
      <trkpt lat="59.216448209647" lon="17.915631394091">
        <ele>152.8</ele>
        <time>2017-08-04T15:26:45Z</time>
      </trkpt>
      <trkpt lat="59.216459189936" lon="17.91506737604">
        <ele>152.8</ele>
        <time>2017-08-04T15:26:53Z</time>
      </trkpt>
      <trkpt lat="59.216459441393" lon="17.914652639628">
        <ele>152.8</ele>
        <time>2017-08-04T15:27:00Z</time>
      </trkpt>
      <trkpt lat="59.216357768946" lon="17.914363128802">
        <ele>152.8</ele>
        <time>2017-08-04T15:27:06Z</time>
      </trkpt>
      <trkpt lat="59.216223155632" lon="17.914026260241">
        <ele>152.8</ele>
        <time>2017-08-04T15:27:12Z</time>
      </trkpt>
      <trkpt lat="59.216165320522" lon="17.913917127903">
        <ele>152.8</ele>
        <time>2017-08-04T15:27:14Z</time>
      </trkpt>
      <trkpt lat="59.216050488492" lon="17.91369358263">
        <ele>152.8</ele>
        <time>2017-08-04T15:27:18Z</time>
      </trkpt>
      <trkpt lat="59.215833313463" lon="17.913377836457">
        <ele>152.8</ele>
        <time>2017-08-04T15:27:25Z</time>
      </trkpt>
      <trkpt lat="59.21563659027" lon="17.913177509047">
        <ele>152.8</ele>
        <time>2017-08-04T15:27:31Z</time>
      </trkpt>
      <trkpt lat="59.215552352175" lon="17.912974834705">
        <ele>152.8</ele>
        <time>2017-08-04T15:27:35Z</time>
      </trkpt>
      <trkpt lat="59.215567523414" lon="17.912745925016">
        <ele>152.8</ele>
        <time>2017-08-04T15:27:39Z</time>
      </trkpt>
      <trkpt lat="59.215585795956" lon="17.912469070859">
        <ele>152.8</ele>
        <time>2017-08-04T15:27:44Z</time>
      </trkpt>
      <trkpt lat="59.215617060443" lon="17.912017537906">
        <ele>152.8</ele>
        <time>2017-08-04T15:27:52Z</time>
      </trkpt>
      <trkpt lat="59.215659975771" lon="17.911611099575">
        <ele>152.8</ele>
        <time>2017-08-04T15:27:59Z</time>
      </trkpt>
      <trkpt lat="59.215682020168" lon="17.911213043144">
        <ele>152.8</ele>
        <time>2017-08-04T15:28:06Z</time>
      </trkpt>
      <trkpt lat="59.21570783642" lon="17.91083367835">
        <ele>152.8</ele>
        <time>2017-08-04T15:28:12Z</time>
      </trkpt>
      <trkpt lat="59.215742956581" lon="17.910385581976">
        <ele>152.8</ele>
        <time>2017-08-04T15:28:19Z</time>
      </trkpt>
      <trkpt lat="59.215773131421" lon="17.909995572169">
        <ele>152.8</ele>
        <time>2017-08-04T15:28:26Z</time>
      </trkpt>
      <trkpt lat="59.215810263238" lon="17.909579243196">
        <ele>152.8</ele>
        <time>2017-08-04T15:28:34Z</time>
      </trkpt>
      <trkpt lat="59.215840689535" lon="17.909046405813">
        <ele>152.8</ele>
        <time>2017-08-04T15:28:43Z</time>
      </trkpt>
      <trkpt lat="59.215863320665" lon="17.908779609936">
        <ele>152.8</ele>
        <time>2017-08-04T15:28:48Z</time>
      </trkpt>
      <trkpt lat="59.215842701191" lon="17.908567128771">
        <ele>152.8</ele>
        <time>2017-08-04T15:28:53Z</time>
      </trkpt>
      <trkpt lat="59.215838510241" lon="17.908245850544">
        <ele>152.8</ele>
        <time>2017-08-04T15:29:00Z</time>
      </trkpt>
      <trkpt lat="59.215833481101" lon="17.907949634198">
        <ele>152.8</ele>
        <time>2017-08-04T15:29:06Z</time>
      </trkpt>
      <trkpt lat="59.215857118059" lon="17.907548979378">
        <ele>152.8</ele>
        <time>2017-08-04T15:29:14Z</time>
      </trkpt>
      <trkpt lat="59.21595677885" lon="17.907212613731">
        <ele>152.8</ele>
        <time>2017-08-04T15:29:20Z</time>
      </trkpt>
      <trkpt lat="59.216107066317" lon="17.906976160332">
        <ele>152.8</ele>
        <time>2017-08-04T15:29:25Z</time>
      </trkpt>
      <trkpt lat="59.216358104222" lon="17.906626216007">
        <ele>152.8</ele>
        <time>2017-08-04T15:29:33Z</time>
      </trkpt>
      <trkpt lat="59.216441755584" lon="17.906534098926">
        <ele>152.2</ele>
        <time>2017-08-04T15:29:36Z</time>
      </trkpt>
      <trkpt lat="59.216450053665" lon="17.90652286718">
        <ele>151.4</ele>
        <time>2017-08-04T15:29:37Z</time>
      </trkpt>
      <trkpt lat="59.216455082805" lon="17.90651699985">
        <ele>151</ele>
        <time>2017-08-04T15:29:38Z</time>
      </trkpt>
      <trkpt lat="59.216464638171" lon="17.906495123091">
        <ele>150.4</ele>
        <time>2017-08-04T15:29:39Z</time>
      </trkpt>
      <trkpt lat="59.216497159943" lon="17.90634349452">
        <ele>150.4</ele>
        <time>2017-08-04T15:29:42Z</time>
      </trkpt>
      <trkpt lat="59.216570920663" lon="17.905946863012">
        <ele>150.4</ele>
        <time>2017-08-04T15:29:49Z</time>
      </trkpt>
      <trkpt lat="59.216678376621" lon="17.905485104141">
        <ele>150.4</ele>
        <time>2017-08-04T15:29:57Z</time>
      </trkpt>
      <trkpt lat="59.216713915877" lon="17.905277903573">
        <ele>150</ele>
        <time>2017-08-04T15:30:00Z</time>
      </trkpt>
      <trkpt lat="59.216726991641" lon="17.905208166165">
        <ele>149.6</ele>
        <time>2017-08-04T15:30:01Z</time>
      </trkpt>
      <trkpt lat="59.216737888111" lon="17.905126107364">
        <ele>148.8</ele>
        <time>2017-08-04T15:30:02Z</time>
      </trkpt>
      <trkpt lat="59.216748952219" lon="17.905047988056">
        <ele>148.4</ele>
        <time>2017-08-04T15:30:03Z</time>
      </trkpt>
      <trkpt lat="59.216821204197" lon="17.904548007721">
        <ele>148.4</ele>
        <time>2017-08-04T15:30:10Z</time>
      </trkpt>
      <trkpt lat="59.216840566386" lon="17.90439135001">
        <ele>148</ele>
        <time>2017-08-04T15:30:12Z</time>
      </trkpt>
      <trkpt lat="59.216853809788" lon="17.904309961761">
        <ele>147.4</ele>
        <time>2017-08-04T15:30:13Z</time>
      </trkpt>
      <trkpt lat="59.216867556104" lon="17.904239386163">
        <ele>147</ele>
        <time>2017-08-04T15:30:14Z</time>
      </trkpt>
      <trkpt lat="59.216875183633" lon="17.904155986258">
        <ele>146.6</ele>
        <time>2017-08-04T15:30:15Z</time>
      </trkpt>
      <trkpt lat="59.216883565533" lon="17.904065545557">
        <ele>146.2</ele>
        <time>2017-08-04T15:30:16Z</time>
      </trkpt>
      <trkpt lat="59.2168913607" lon="17.903984157308">
        <ele>146.2</ele>
        <time>2017-08-04T15:30:17Z</time>
      </trkpt>
      <trkpt lat="59.21692740287" lon="17.903776202369">
        <ele>146.2</ele>
        <time>2017-08-04T15:30:20Z</time>
      </trkpt>
      <trkpt lat="59.216938550797" lon="17.903708057522">
        <ele>146.2</ele>
        <time>2017-08-04T15:30:21Z</time>
      </trkpt>
      <trkpt lat="59.217019352313" lon="17.903357275007">
        <ele>146.2</ele>
        <time>2017-08-04T15:30:27Z</time>
      </trkpt>
      <trkpt lat="59.2170003254" lon="17.903316706611">
        <ele>146.2</ele>
        <time>2017-08-04T15:30:28Z</time>
      </trkpt>
      <trkpt lat="59.216995799174" lon="17.903306480693">
        <ele>146.2</ele>
        <time>2017-08-04T15:30:29Z</time>
      </trkpt>
      <trkpt lat="59.216981633763" lon="17.903262643356">
        <ele>146.2</ele>
        <time>2017-08-04T15:30:59Z</time>
      </trkpt>
      <trkpt lat="59.216957158615" lon="17.903183099125">
        <ele>146.2</ele>
        <time>2017-08-04T15:31:01Z</time>
      </trkpt>
      <trkpt lat="59.216898233858" lon="17.903001714809">
        <ele>146.2</ele>
        <time>2017-08-04T15:31:06Z</time>
      </trkpt>
      <trkpt lat="59.216899574962" lon="17.902951255771">
        <ele>146.2</ele>
        <time>2017-08-04T15:31:07Z</time>
      </trkpt>
      <trkpt lat="59.216887002112" lon="17.902605334758">
        <ele>146.2</ele>
        <time>2017-08-04T15:31:13Z</time>
      </trkpt>
      <trkpt lat="59.216780887258" lon="17.902319679606">
        <ele>146.2</ele>
        <time>2017-08-04T15:31:19Z</time>
      </trkpt>
      <trkpt lat="59.216682316114" lon="17.902028576219">
        <ele>146.2</ele>
        <time>2017-08-04T15:31:25Z</time>
      </trkpt>
      <trkpt lat="59.216638478777" lon="17.901756415926">
        <ele>146.2</ele>
        <time>2017-08-04T15:31:30Z</time>
      </trkpt>
      <trkpt lat="59.216586510997" lon="17.901410159637">
        <ele>146.2</ele>
        <time>2017-08-04T15:31:36Z</time>
      </trkpt>
      <trkpt lat="59.216537309244" lon="17.90128166511">
        <ele>145.8</ele>
        <time>2017-08-04T15:31:39Z</time>
      </trkpt>
      <trkpt lat="59.216520210168" lon="17.901242437818">
        <ele>144.8</ele>
        <time>2017-08-04T15:31:40Z</time>
      </trkpt>
      <trkpt lat="59.216506044757" lon="17.901201701784">
        <ele>144.4</ele>
        <time>2017-08-04T15:31:41Z</time>
      </trkpt>
      <trkpt lat="59.216492801355" lon="17.901161217207">
        <ele>144</ele>
        <time>2017-08-04T15:31:42Z</time>
      </trkpt>
      <trkpt lat="59.216480479962" lon="17.901122241372">
        <ele>144</ele>
        <time>2017-08-04T15:31:43Z</time>
      </trkpt>
      <trkpt lat="59.216386435044" lon="17.900891990579">
        <ele>144</ele>
        <time>2017-08-04T15:31:49Z</time>
      </trkpt>
      <trkpt lat="59.21637084471" lon="17.900855696952">
        <ele>144</ele>
        <time>2017-08-04T15:31:50Z</time>
      </trkpt>
      <trkpt lat="59.216252408463" lon="17.900602815029">
        <ele>144</ele>
        <time>2017-08-04T15:31:57Z</time>
      </trkpt>
      <trkpt lat="59.216117795149" lon="17.900368708562">
        <ele>144</ele>
        <time>2017-08-04T15:32:04Z</time>
      </trkpt>
      <trkpt lat="59.216010674467" lon="17.900184055305">
        <ele>144</ele>
        <time>2017-08-04T15:32:10Z</time>
      </trkpt>
      <trkpt lat="59.215927945114" lon="17.90000342536">
        <ele>144</ele>
        <time>2017-08-04T15:32:15Z</time>
      </trkpt>
      <trkpt lat="59.215877066981" lon="17.899967299371">
        <ele>144</ele>
        <time>2017-08-04T15:32:17Z</time>
      </trkpt>
      <trkpt lat="59.215791739239" lon="17.899991187786">
        <ele>144</ele>
        <time>2017-08-04T15:32:20Z</time>
      </trkpt>
      <trkpt lat="59.215768018462" lon="17.899995462555">
        <ele>144</ele>
        <time>2017-08-04T15:32:21Z</time>
      </trkpt>
      <trkpt lat="59.215698197235" lon="17.899997809487">
        <ele>144</ele>
        <time>2017-08-04T15:32:25Z</time>
      </trkpt>
      <trkpt lat="59.21569358719" lon="17.900022619911">
        <ele>144</ele>
        <time>2017-08-04T15:32:26Z</time>
      </trkpt>
      <trkpt lat="59.215682774539" lon="17.900116664829">
        <ele>144.4</ele>
        <time>2017-08-04T15:32:29Z</time>
      </trkpt>
      <trkpt lat="59.215676404295" lon="17.900146923488">
        <ele>144.8</ele>
        <time>2017-08-04T15:32:30Z</time>
      </trkpt>
      <trkpt lat="59.215669866413" lon="17.900168213514">
        <ele>145.8</ele>
        <time>2017-08-04T15:32:31Z</time>
      </trkpt>
      <trkpt lat="59.215665843101" lon="17.900186821332">
        <ele>146.2</ele>
        <time>2017-08-04T15:32:32Z</time>
      </trkpt>
      <trkpt lat="59.215624771791" lon="17.900240549311">
        <ele>146.2</ele>
        <time>2017-08-04T15:32:36Z</time>
      </trkpt>
      <trkpt lat="59.215634327157" lon="17.900224623701">
        <ele>146.2</ele>
        <time>2017-08-04T15:32:37Z</time>
      </trkpt>
      <trkpt lat="59.215662825617" lon="17.900220600389">
        <ele>146.2</ele>
        <time>2017-08-04T15:32:40Z</time>
      </trkpt>
      <trkpt lat="59.215695934122" lon="17.900200483829">
        <ele>146.2</ele>
        <time>2017-08-04T15:32:49Z</time>
      </trkpt>
      <trkpt lat="59.215727450066" lon="17.900080455021">
        <ele>146.2</ele>
        <time>2017-08-04T15:32:51Z</time>
      </trkpt>
      <trkpt lat="59.215699873615" lon="17.899925138414">
        <ele>146.2</ele>
        <time>2017-08-04T15:32:53Z</time>
      </trkpt>
      <trkpt lat="59.215670704603" lon="17.89987937324">
        <ele>146.2</ele>
        <time>2017-08-04T15:32:54Z</time>
      </trkpt>
      <trkpt lat="59.215558303324" lon="17.899608134956">
        <ele>146.2</ele>
        <time>2017-08-04T15:32:58Z</time>
      </trkpt>
      <trkpt lat="59.215466772976" lon="17.89939322304">
        <ele>146.2</ele>
        <time>2017-08-04T15:33:02Z</time>
      </trkpt>
      <trkpt lat="59.215462079112" lon="17.899383332398">
        <ele>146.2</ele>
        <time>2017-08-04T15:33:03Z</time>
      </trkpt>
      <trkpt lat="59.215451601737" lon="17.899376291602">
        <ele>146.2</ele>
        <time>2017-08-04T15:33:35Z</time>
      </trkpt>
      <trkpt lat="59.215461492379" lon="17.89941417779">
        <ele>146.2</ele>
        <time>2017-08-04T15:33:36Z</time>
      </trkpt>
      <trkpt lat="59.215560566437" lon="17.899660689469">
        <ele>146.2</ele>
        <time>2017-08-04T15:33:41Z</time>
      </trkpt>
      <trkpt lat="59.215643798704" lon="17.899843414889">
        <ele>146.2</ele>
        <time>2017-08-04T15:33:45Z</time>
      </trkpt>
      <trkpt lat="59.215689228602" lon="17.899921701835">
        <ele>146.2</ele>
        <time>2017-08-04T15:33:47Z</time>
      </trkpt>
      <trkpt lat="59.215684618557" lon="17.900005856111">
        <ele>146.2</ele>
        <time>2017-08-04T15:33:49Z</time>
      </trkpt>
      <trkpt lat="59.215670201689" lon="17.900082801953">
        <ele>146.2</ele>
        <time>2017-08-04T15:33:52Z</time>
      </trkpt>
      <trkpt lat="59.215665256368" lon="17.900119682313">
        <ele>146.2</ele>
        <time>2017-08-04T15:33:54Z</time>
      </trkpt>
      <trkpt lat="59.215661149237" lon="17.900141475253">
        <ele>146.2</ele>
        <time>2017-08-04T15:33:55Z</time>
      </trkpt>
      <trkpt lat="59.215640865039" lon="17.900207021711">
        <ele>146.2</ele>
        <time>2017-08-04T15:33:58Z</time>
      </trkpt>
      <trkpt lat="59.215643798704" lon="17.90023644218">
        <ele>146.2</ele>
        <time>2017-08-04T15:33:59Z</time>
      </trkpt>
      <trkpt lat="59.215702555823" lon="17.900281620621">
        <ele>146.2</ele>
        <time>2017-08-04T15:34:02Z</time>
      </trkpt>
      <trkpt lat="59.215770868308" lon="17.900111132775">
        <ele>146.2</ele>
        <time>2017-08-04T15:34:07Z</time>
      </trkpt>
      <trkpt lat="59.215778831113" lon="17.900063188307">
        <ele>146.2</ele>
        <time>2017-08-04T15:34:10Z</time>
      </trkpt>
      <trkpt lat="59.215778914932" lon="17.900026224128">
        <ele>146.2</ele>
        <time>2017-08-04T15:34:49Z</time>
      </trkpt>
      <trkpt lat="59.215734071767" lon="17.899778287526">
        <ele>145.8</ele>
        <time>2017-08-04T15:34:53Z</time>
      </trkpt>
      <trkpt lat="59.215728623532" lon="17.899667478808">
        <ele>145.2</ele>
        <time>2017-08-04T15:34:54Z</time>
      </trkpt>
      <trkpt lat="59.215743124219" lon="17.899580390867">
        <ele>144.8</ele>
        <time>2017-08-04T15:34:55Z</time>
      </trkpt>
      <trkpt lat="59.215769443385" lon="17.899500427541">
        <ele>144.2</ele>
        <time>2017-08-04T15:34:56Z</time>
      </trkpt>
      <trkpt lat="59.215795762551" lon="17.899449465589">
        <ele>143.6</ele>
        <time>2017-08-04T15:34:57Z</time>
      </trkpt>
      <trkpt lat="59.215821159708" lon="17.899396743438">
        <ele>143</ele>
        <time>2017-08-04T15:34:58Z</time>
      </trkpt>
      <trkpt lat="59.215847311236" lon="17.899335136473">
        <ele>142.4</ele>
        <time>2017-08-04T15:34:59Z</time>
      </trkpt>
      <trkpt lat="59.21587128347" lon="17.899280486485">
        <ele>141.8</ele>
        <time>2017-08-04T15:35:00Z</time>
      </trkpt>
      <trkpt lat="59.215917803015" lon="17.899170851233">
        <ele>142.2</ele>
        <time>2017-08-04T15:35:02Z</time>
      </trkpt>
      <trkpt lat="59.215938925403" lon="17.899117207073">
        <ele>142.6</ele>
        <time>2017-08-04T15:35:03Z</time>
      </trkpt>
      <trkpt lat="59.215959209601" lon="17.899067083311">
        <ele>143</ele>
        <time>2017-08-04T15:35:04Z</time>
      </trkpt>
      <trkpt lat="59.215979493799" lon="17.899014947893">
        <ele>143.6</ele>
        <time>2017-08-04T15:35:05Z</time>
      </trkpt>
      <trkpt lat="59.215997179608" lon="17.89896239338">
        <ele>144</ele>
        <time>2017-08-04T15:35:06Z</time>
      </trkpt>
      <trkpt lat="59.216056607279" lon="17.898780757607">
        <ele>144</ele>
        <time>2017-08-04T15:35:10Z</time>
      </trkpt>
      <trkpt lat="59.216120309719" lon="17.8985583858">
        <ele>144</ele>
        <time>2017-08-04T15:35:16Z</time>
      </trkpt>
      <trkpt lat="59.216162805952" lon="17.8983069288">
        <ele>144</ele>
        <time>2017-08-04T15:35:23Z</time>
      </trkpt>
      <trkpt lat="59.216180407942" lon="17.898081204233">
        <ele>144</ele>
        <time>2017-08-04T15:35:29Z</time>
      </trkpt>
      <trkpt lat="59.216169008558" lon="17.897867465783">
        <ele>144</ele>
        <time>2017-08-04T15:35:36Z</time>
      </trkpt>
      <trkpt lat="59.2161537535" lon="17.897596814232">
        <ele>144</ele>
        <time>2017-08-04T15:35:43Z</time>
      </trkpt>
      <trkpt lat="59.21614369522" lon="17.897294479099">
        <ele>144</ele>
        <time>2017-08-04T15:35:50Z</time>
      </trkpt>
      <trkpt lat="59.216130032723" lon="17.897106053987">
        <ele>144</ele>
        <time>2017-08-04T15:35:56Z</time>
      </trkpt>
      <trkpt lat="59.216122572832" lon="17.896859709946">
        <ele>144</ele>
        <time>2017-08-04T15:36:03Z</time>
      </trkpt>
      <trkpt lat="59.216115112941" lon="17.89667078192">
        <ele>144</ele>
        <time>2017-08-04T15:36:08Z</time>
      </trkpt>
      <trkpt lat="59.216101534263" lon="17.896338607223">
        <ele>144</ele>
        <time>2017-08-04T15:36:15Z</time>
      </trkpt>
      <trkpt lat="59.216085357196" lon="17.895979945722">
        <ele>144</ele>
        <time>2017-08-04T15:36:22Z</time>
      </trkpt>
      <trkpt lat="59.216065324455" lon="17.895570741364">
        <ele>144.4</ele>
        <time>2017-08-04T15:36:30Z</time>
      </trkpt>
      <trkpt lat="59.216064486265" lon="17.895525395285">
        <ele>144.8</ele>
        <time>2017-08-04T15:36:31Z</time>
      </trkpt>
      <trkpt lat="59.216063145161" lon="17.89547971393">
        <ele>145.2</ele>
        <time>2017-08-04T15:36:32Z</time>
      </trkpt>
      <trkpt lat="59.216060798229" lon="17.895432691471">
        <ele>145.6</ele>
        <time>2017-08-04T15:36:33Z</time>
      </trkpt>
      <trkpt lat="59.216056355822" lon="17.895382567709">
        <ele>146</ele>
        <time>2017-08-04T15:36:34Z</time>
      </trkpt>
      <trkpt lat="59.216068761034" lon="17.895145527577">
        <ele>146</ele>
        <time>2017-08-04T15:36:39Z</time>
      </trkpt>
      <trkpt lat="59.216085692472" lon="17.8951218068">
        <ele>146</ele>
        <time>2017-08-04T15:36:40Z</time>
      </trkpt>
      <trkpt lat="59.216121315547" lon="17.895153741839">
        <ele>146</ele>
        <time>2017-08-04T15:36:42Z</time>
      </trkpt>
      <trkpt lat="59.216177558096" lon="17.895210068207">
        <ele>146.4</ele>
        <time>2017-08-04T15:36:46Z</time>
      </trkpt>
      <trkpt lat="59.21618979567" lon="17.895189197276">
        <ele>146.8</ele>
        <time>2017-08-04T15:36:47Z</time>
      </trkpt>
      <trkpt lat="59.216196836466" lon="17.895163548662">
        <ele>147.2</ele>
        <time>2017-08-04T15:36:48Z</time>
      </trkpt>
      <trkpt lat="59.21619482481" lon="17.895135804573">
        <ele>147.6</ele>
        <time>2017-08-04T15:36:49Z</time>
      </trkpt>
      <trkpt lat="59.216190130946" lon="17.895101857878">
        <ele>148</ele>
        <time>2017-08-04T15:36:50Z</time>
      </trkpt>
      <trkpt lat="59.216173953879" lon="17.895063552595">
        <ele>148</ele>
        <time>2017-08-04T15:36:52Z</time>
      </trkpt>
      <trkpt lat="59.216164733789" lon="17.89505391341">
        <ele>148</ele>
        <time>2017-08-04T15:36:54Z</time>
      </trkpt>
      <trkpt lat="59.216139001356" lon="17.894949307298">
        <ele>148</ele>
        <time>2017-08-04T16:03:23Z</time>
      </trkpt>
      <trkpt lat="59.216156519527" lon="17.894922066123">
        <ele>148</ele>
        <time>2017-08-04T16:03:24Z</time>
      </trkpt>
      <trkpt lat="59.216185017987" lon="17.894984511278">
        <ele>148</ele>
        <time>2017-08-04T16:03:27Z</time>
      </trkpt>
      <trkpt lat="59.21620823585" lon="17.895051566478">
        <ele>148</ele>
        <time>2017-08-04T16:03:31Z</time>
      </trkpt>
      <trkpt lat="59.216226256935" lon="17.89508660282">
        <ele>148</ele>
        <time>2017-08-04T16:03:33Z</time>
      </trkpt>
      <trkpt lat="59.216237321043" lon="17.895096242005">
        <ele>148</ele>
        <time>2017-08-04T16:03:34Z</time>
      </trkpt>
      <trkpt lat="59.216267244426" lon="17.895147874509">
        <ele>148</ele>
        <time>2017-08-04T16:03:37Z</time>
      </trkpt>
      <trkpt lat="59.21628954028" lon="17.895201183393">
        <ele>148</ele>
        <time>2017-08-04T16:03:40Z</time>
      </trkpt>
      <trkpt lat="59.216289372642" lon="17.895208727103">
        <ele>148</ele>
        <time>2017-08-04T16:03:43Z</time>
      </trkpt>
      <trkpt lat="59.216327594106" lon="17.895290199171">
        <ele>148</ele>
        <time>2017-08-04T16:03:52Z</time>
      </trkpt>
      <trkpt lat="59.216403031206" lon="17.895504608173">
        <ele>148</ele>
        <time>2017-08-04T16:03:57Z</time>
      </trkpt>
      <trkpt lat="59.216436139711" lon="17.895598233996">
        <ele>148</ele>
        <time>2017-08-04T16:03:59Z</time>
      </trkpt>
      <trkpt lat="59.216501518531" lon="17.895771739326">
        <ele>148</ele>
        <time>2017-08-04T16:04:03Z</time>
      </trkpt>
      <trkpt lat="59.216604783539" lon="17.896118498529">
        <ele>148</ele>
        <time>2017-08-04T16:04:11Z</time>
      </trkpt>
      <trkpt lat="59.216658092423" lon="17.896185637548">
        <ele>148</ele>
        <time>2017-08-04T16:04:13Z</time>
      </trkpt>
      <trkpt lat="59.216731434048" lon="17.896240287536">
        <ele>148</ele>
        <time>2017-08-04T16:04:15Z</time>
      </trkpt>
      <trkpt lat="59.21692069735" lon="17.896334500092">
        <ele>148</ele>
        <time>2017-08-04T16:04:19Z</time>
      </trkpt>
      <trkpt lat="59.216964869963" lon="17.896395520324">
        <ele>148</ele>
        <time>2017-08-04T16:04:20Z</time>
      </trkpt>
      <trkpt lat="59.217012227698" lon="17.896454696538">
        <ele>147.6</ele>
        <time>2017-08-04T16:04:21Z</time>
      </trkpt>
      <trkpt lat="59.217065788039" lon="17.896499036789">
        <ele>147.2</ele>
        <time>2017-08-04T16:04:22Z</time>
      </trkpt>
      <trkpt lat="59.217117588181" lon="17.896539856642">
        <ele>146.8</ele>
        <time>2017-08-04T16:04:23Z</time>
      </trkpt>
      <trkpt lat="59.217170058875" lon="17.896554608786">
        <ele>146.4</ele>
        <time>2017-08-04T16:04:24Z</time>
      </trkpt>
      <trkpt lat="59.217222948664" lon="17.896564667066">
        <ele>146</ele>
        <time>2017-08-04T16:04:25Z</time>
      </trkpt>
      <trkpt lat="59.217268294743" lon="17.896577994287">
        <ele>146</ele>
        <time>2017-08-04T16:04:26Z</time>
      </trkpt>
      <trkpt lat="59.217313473184" lon="17.896577910468">
        <ele>146</ele>
        <time>2017-08-04T16:04:27Z</time>
      </trkpt>
      <trkpt lat="59.217413217794" lon="17.896603894358">
        <ele>146</ele>
        <time>2017-08-04T16:04:30Z</time>
      </trkpt>
      <trkpt lat="59.217489995998" lon="17.896578748658">
        <ele>146</ele>
        <time>2017-08-04T16:04:34Z</time>
      </trkpt>
      <trkpt lat="59.217508436178" lon="17.896594925725">
        <ele>146</ele>
        <time>2017-08-04T16:04:35Z</time>
      </trkpt>
      <trkpt lat="59.217532492231" lon="17.896579503029">
        <ele>146.4</ele>
        <time>2017-08-04T16:04:36Z</time>
      </trkpt>
      <trkpt lat="59.217554620447" lon="17.896590567137">
        <ele>146.8</ele>
        <time>2017-08-04T16:04:37Z</time>
      </trkpt>
      <trkpt lat="59.217574820826" lon="17.896584951264">
        <ele>147.2</ele>
        <time>2017-08-04T16:04:38Z</time>
      </trkpt>
      <trkpt lat="59.217588231866" lon="17.896573216604">
        <ele>147.6</ele>
        <time>2017-08-04T16:04:39Z</time>
      </trkpt>
      <trkpt lat="59.217599295974" lon="17.896579083934">
        <ele>148</ele>
        <time>2017-08-04T16:04:40Z</time>
      </trkpt>
      <trkpt lat="59.217609270435" lon="17.8966054031">
        <ele>148</ele>
        <time>2017-08-04T16:04:42Z</time>
      </trkpt>
      <trkpt lat="59.217612958471" lon="17.896604229634">
        <ele>148</ele>
        <time>2017-08-04T16:04:43Z</time>
      </trkpt>
      <trkpt lat="59.217672469961" lon="17.896611857163">
        <ele>148</ele>
        <time>2017-08-04T16:04:47Z</time>
      </trkpt>
      <trkpt lat="59.217696609833" lon="17.896593584621">
        <ele>148</ele>
        <time>2017-08-04T16:04:49Z</time>
      </trkpt>
      <trkpt lat="59.217770035277" lon="17.896637841053">
        <ele>148</ele>
        <time>2017-08-04T16:04:54Z</time>
      </trkpt>
      <trkpt lat="59.217788643095" lon="17.896642786374">
        <ele>148</ele>
        <time>2017-08-04T16:04:55Z</time>
      </trkpt>
      <trkpt lat="59.217814794623" lon="17.896645552401">
        <ele>148</ele>
        <time>2017-08-04T16:04:57Z</time>
      </trkpt>
      <trkpt lat="59.217860811254" lon="17.896664663133">
        <ele>148</ele>
        <time>2017-08-04T16:05:00Z</time>
      </trkpt>
      <trkpt lat="59.217956867828" lon="17.896693999783">
        <ele>148</ele>
        <time>2017-08-04T16:05:05Z</time>
      </trkpt>
      <trkpt lat="59.217975475646" lon="17.896712104687">
        <ele>148</ele>
        <time>2017-08-04T16:05:06Z</time>
      </trkpt>
      <trkpt lat="59.218078321559" lon="17.896749487961">
        <ele>148.4</ele>
        <time>2017-08-04T16:05:11Z</time>
      </trkpt>
      <trkpt lat="59.218095923549" lon="17.896759043327">
        <ele>148.8</ele>
        <time>2017-08-04T16:05:12Z</time>
      </trkpt>
      <trkpt lat="59.218112854987" lon="17.896768598693">
        <ele>149.2</ele>
        <time>2017-08-04T16:05:13Z</time>
      </trkpt>
      <trkpt lat="59.218127271855" lon="17.896770023616">
        <ele>149.6</ele>
        <time>2017-08-04T16:05:14Z</time>
      </trkpt>
      <trkpt lat="59.218143868017" lon="17.896779159887">
        <ele>150</ele>
        <time>2017-08-04T16:05:15Z</time>
      </trkpt>
      <trkpt lat="59.218217628737" lon="17.896821237025">
        <ele>150</ele>
        <time>2017-08-04T16:05:19Z</time>
      </trkpt>
      <trkpt lat="59.218327599265" lon="17.896892399356">
        <ele>150</ele>
        <time>2017-08-04T16:05:24Z</time>
      </trkpt>
      <trkpt lat="59.218471013574" lon="17.896993987984">
        <ele>150</ele>
        <time>2017-08-04T16:05:29Z</time>
      </trkpt>
      <trkpt lat="59.21861132658" lon="17.897087697626">
        <ele>150</ele>
        <time>2017-08-04T16:05:33Z</time>
      </trkpt>
      <trkpt lat="59.218638400117" lon="17.897144023994">
        <ele>150</ele>
        <time>2017-08-04T16:05:34Z</time>
      </trkpt>
      <trkpt lat="59.218665389835" lon="17.897245025889">
        <ele>149.6</ele>
        <time>2017-08-04T16:05:36Z</time>
      </trkpt>
      <trkpt lat="59.218688188603" lon="17.897306632854">
        <ele>149.2</ele>
        <time>2017-08-04T16:05:37Z</time>
      </trkpt>
      <trkpt lat="59.218712831389" lon="17.89737067057">
        <ele>148.8</ele>
        <time>2017-08-04T16:05:38Z</time>
      </trkpt>
      <trkpt lat="59.21875717164" lon="17.897426996938">
        <ele>148.2</ele>
        <time>2017-08-04T16:05:39Z</time>
      </trkpt>
      <trkpt lat="59.218788268489" lon="17.897453316104">
        <ele>147.8</ele>
        <time>2017-08-04T16:05:40Z</time>
      </trkpt>
      <trkpt lat="59.218894383343" lon="17.897531938326">
        <ele>147.8</ele>
        <time>2017-08-04T16:05:43Z</time>
      </trkpt>
      <trkpt lat="59.218997983627" lon="17.89760201101">
        <ele>147.8</ele>
        <time>2017-08-04T16:05:46Z</time>
      </trkpt>
      <trkpt lat="59.219081970265" lon="17.897611734014">
        <ele>147.8</ele>
        <time>2017-08-04T16:05:50Z</time>
      </trkpt>
      <trkpt lat="59.21916956112" lon="17.897623049579">
        <ele>147.8</ele>
        <time>2017-08-04T16:05:55Z</time>
      </trkpt>
      <trkpt lat="59.219212476448" lon="17.897654146428">
        <ele>147.8</ele>
        <time>2017-08-04T16:05:57Z</time>
      </trkpt>
      <trkpt lat="59.219310879954" lon="17.89768834458">
        <ele>147.8</ele>
        <time>2017-08-04T16:06:01Z</time>
      </trkpt>
      <trkpt lat="59.219477763583" lon="17.897852210725">
        <ele>147.8</ele>
        <time>2017-08-04T16:06:08Z</time>
      </trkpt>
      <trkpt lat="59.219483630913" lon="17.897910884025">
        <ele>147.8</ele>
        <time>2017-08-04T16:06:09Z</time>
      </trkpt>
      <trkpt lat="59.219450606227" lon="17.898005096581">
        <ele>147.8</ele>
        <time>2017-08-04T16:06:11Z</time>
      </trkpt>
      <trkpt lat="59.219380030629" lon="17.898257140314">
        <ele>147.8</ele>
        <time>2017-08-04T16:06:17Z</time>
      </trkpt>
      <trkpt lat="59.219338791681" lon="17.898402398641">
        <ele>147.4</ele>
        <time>2017-08-04T16:06:20Z</time>
      </trkpt>
      <trkpt lat="59.219325883555" lon="17.898454869335">
        <ele>147</ele>
        <time>2017-08-04T16:06:21Z</time>
      </trkpt>
      <trkpt lat="59.219314065076" lon="17.89850474164">
        <ele>146.6</ele>
        <time>2017-08-04T16:06:22Z</time>
      </trkpt>
      <trkpt lat="59.219300067303" lon="17.898550758271">
        <ele>146.2</ele>
        <time>2017-08-04T16:06:23Z</time>
      </trkpt>
      <trkpt lat="59.219288751738" lon="17.898598702739">
        <ele>145.6</ele>
        <time>2017-08-04T16:06:24Z</time>
      </trkpt>
      <trkpt lat="59.219247345152" lon="17.898752929699">
        <ele>145.6</ele>
        <time>2017-08-04T16:06:27Z</time>
      </trkpt>
      <trkpt lat="59.21916872293" lon="17.899141095488">
        <ele>145.6</ele>
        <time>2017-08-04T16:06:34Z</time>
      </trkpt>
      <trkpt lat="59.219114827313" lon="17.899393725954">
        <ele>145.6</ele>
        <time>2017-08-04T16:06:40Z</time>
      </trkpt>
      <trkpt lat="59.219107451241" lon="17.899500176084">
        <ele>146.2</ele>
        <time>2017-08-04T16:06:43Z</time>
      </trkpt>
      <trkpt lat="59.219116084598" lon="17.899525824698">
        <ele>146.6</ele>
        <time>2017-08-04T16:06:44Z</time>
      </trkpt>
      <trkpt lat="59.2191377099" lon="17.899539235738">
        <ele>147</ele>
        <time>2017-08-04T16:06:45Z</time>
      </trkpt>
      <trkpt lat="59.219157491184" lon="17.899544600154">
        <ele>147.4</ele>
        <time>2017-08-04T16:06:46Z</time>
      </trkpt>
      <trkpt lat="59.2191796194" lon="17.899558262651">
        <ele>147.8</ele>
        <time>2017-08-04T16:06:47Z</time>
      </trkpt>
      <trkpt lat="59.219184816178" lon="17.899646021144">
        <ele>147.8</ele>
        <time>2017-08-04T16:06:49Z</time>
      </trkpt>
      <trkpt lat="59.219184480902" lon="17.899678459097">
        <ele>147.8</ele>
        <time>2017-08-04T16:06:50Z</time>
      </trkpt>
      <trkpt lat="59.219195712648" lon="17.899709975041">
        <ele>147.8</ele>
        <time>2017-08-04T16:06:51Z</time>
      </trkpt>
      <trkpt lat="59.219238544157" lon="17.89975615931">
        <ele>147.8</ele>
        <time>2017-08-04T16:06:54Z</time>
      </trkpt>
      <trkpt lat="59.219296379267" lon="17.899768145427">
        <ele>147.8</ele>
        <time>2017-08-04T16:06:59Z</time>
      </trkpt>
      <trkpt lat="59.219317501655" lon="17.899786501788">
        <ele>147.8</ele>
        <time>2017-08-04T16:07:01Z</time>
      </trkpt>
      <trkpt lat="59.219361087535" lon="17.899825812899">
        <ele>147.8</ele>
        <time>2017-08-04T16:07:04Z</time>
      </trkpt>
      <trkpt lat="59.219415821342" lon="17.899851796789">
        <ele>147.8</ele>
        <time>2017-08-04T16:07:07Z</time>
      </trkpt>
      <trkpt lat="59.219448343114" lon="17.899873757367">
        <ele>147.8</ele>
        <time>2017-08-04T16:07:09Z</time>
      </trkpt>
      <trkpt lat="59.219521936196" lon="17.89992128274">
        <ele>148.2</ele>
        <time>2017-08-04T16:07:13Z</time>
      </trkpt>
      <trkpt lat="59.219537861806" lon="17.899935615789">
        <ele>148.6</ele>
        <time>2017-08-04T16:07:14Z</time>
      </trkpt>
      <trkpt lat="59.219562588411" lon="17.899949529743">
        <ele>149</ele>
        <time>2017-08-04T16:07:15Z</time>
      </trkpt>
      <trkpt lat="59.219583878437" lon="17.899972244692">
        <ele>149.4</ele>
        <time>2017-08-04T16:07:16Z</time>
      </trkpt>
      <trkpt lat="59.219604749368" lon="17.899981464782">
        <ele>149.8</ele>
        <time>2017-08-04T16:07:17Z</time>
      </trkpt>
      <trkpt lat="59.219750594428" lon="17.900082466677">
        <ele>149.8</ele>
        <time>2017-08-04T16:07:24Z</time>
      </trkpt>
      <trkpt lat="59.219841202767" lon="17.900143989823">
        <ele>150.2</ele>
        <time>2017-08-04T16:07:29Z</time>
      </trkpt>
      <trkpt lat="59.219858972395" lon="17.90015513775">
        <ele>150.6</ele>
        <time>2017-08-04T16:07:30Z</time>
      </trkpt>
      <trkpt lat="59.219875484738" lon="17.900162010908">
        <ele>151</ele>
        <time>2017-08-04T16:07:31Z</time>
      </trkpt>
      <trkpt lat="59.219895852755" lon="17.900166537134">
        <ele>152</ele>
        <time>2017-08-04T16:07:32Z</time>
      </trkpt>
      <trkpt lat="59.219990232949" lon="17.900239962578">
        <ele>152</ele>
        <time>2017-08-04T16:07:37Z</time>
      </trkpt>
      <trkpt lat="59.220069022809" lon="17.900292684729">
        <ele>152</ele>
        <time>2017-08-04T16:07:41Z</time>
      </trkpt>
      <trkpt lat="59.22010665754" lon="17.900311124909">
        <ele>152</ele>
        <time>2017-08-04T16:07:43Z</time>
      </trkpt>
      <trkpt lat="59.220169018876" lon="17.90035797973">
        <ele>152</ele>
        <time>2017-08-04T16:07:47Z</time>
      </trkpt>
      <trkpt lat="59.220183687201" lon="17.900363679422">
        <ele>152.4</ele>
        <time>2017-08-04T16:07:48Z</time>
      </trkpt>
      <trkpt lat="59.22019550568" lon="17.900383209249">
        <ele>152.8</ele>
        <time>2017-08-04T16:07:49Z</time>
      </trkpt>
      <trkpt lat="59.220206905064" lon="17.900393267529">
        <ele>153.2</ele>
        <time>2017-08-04T16:07:50Z</time>
      </trkpt>
      <trkpt lat="59.22021729862" lon="17.900403577266">
        <ele>153.6</ele>
        <time>2017-08-04T16:07:51Z</time>
      </trkpt>
      <trkpt lat="59.220227189262" lon="17.900418413229">
        <ele>154</ele>
        <time>2017-08-04T16:07:52Z</time>
      </trkpt>
      <trkpt lat="59.220229787651" lon="17.900476835072">
        <ele>154</ele>
        <time>2017-08-04T16:07:54Z</time>
      </trkpt>
      <trkpt lat="59.220253173152" lon="17.900551350163">
        <ele>154</ele>
        <time>2017-08-04T16:07:58Z</time>
      </trkpt>
      <trkpt lat="59.220339506722" lon="17.900637013181">
        <ele>154.4</ele>
        <time>2017-08-04T16:08:03Z</time>
      </trkpt>
      <trkpt lat="59.220351576658" lon="17.900662410338">
        <ele>154.8</ele>
        <time>2017-08-04T16:08:04Z</time>
      </trkpt>
      <trkpt lat="59.220362473128" lon="17.900693842463">
        <ele>155.4</ele>
        <time>2017-08-04T16:08:05Z</time>
      </trkpt>
      <trkpt lat="59.220371022666" lon="17.900725693683">
        <ele>155.8</ele>
        <time>2017-08-04T16:08:06Z</time>
      </trkpt>
      <trkpt lat="59.220378650195" lon="17.900764334242">
        <ele>156.2</ele>
        <time>2017-08-04T16:08:07Z</time>
      </trkpt>
      <trkpt lat="59.22038996576" lon="17.900923171247">
        <ele>156.2</ele>
        <time>2017-08-04T16:08:10Z</time>
      </trkpt>
      <trkpt lat="59.220426343206" lon="17.90115426023">
        <ele>156.2</ele>
        <time>2017-08-04T16:08:13Z</time>
      </trkpt>
      <trkpt lat="59.22047378476" lon="17.901305637344">
        <ele>156.2</ele>
        <time>2017-08-04T16:08:15Z</time>
      </trkpt>
      <trkpt lat="59.22053245806" lon="17.901535301404">
        <ele>156.2</ele>
        <time>2017-08-04T16:08:19Z</time>
      </trkpt>
      <trkpt lat="59.220603788029" lon="17.901818358167">
        <ele>156.2</ele>
        <time>2017-08-04T16:08:26Z</time>
      </trkpt>
      <trkpt lat="59.220651900135" lon="17.901987085814">
        <ele>156.6</ele>
        <time>2017-08-04T16:08:31Z</time>
      </trkpt>
      <trkpt lat="59.220658521836" lon="17.902024972002">
        <ele>157</ele>
        <time>2017-08-04T16:08:32Z</time>
      </trkpt>
      <trkpt lat="59.220664472985" lon="17.902066043312">
        <ele>157.4</ele>
        <time>2017-08-04T16:08:33Z</time>
      </trkpt>
      <trkpt lat="59.220669418306" lon="17.902105773518">
        <ele>157.8</ele>
        <time>2017-08-04T16:08:34Z</time>
      </trkpt>
      <trkpt lat="59.220674782722" lon="17.902145419905">
        <ele>158.2</ele>
        <time>2017-08-04T16:08:35Z</time>
      </trkpt>
      <trkpt lat="59.220709483788" lon="17.902286990196">
        <ele>158.2</ele>
        <time>2017-08-04T16:08:39Z</time>
      </trkpt>
      <trkpt lat="59.220759188455" lon="17.902547248191">
        <ele>158.2</ele>
        <time>2017-08-04T16:08:46Z</time>
      </trkpt>
      <trkpt lat="59.220775281703" lon="17.902631570105">
        <ele>158.6</ele>
        <time>2017-08-04T16:08:48Z</time>
      </trkpt>
      <trkpt lat="59.220786848725" lon="17.902675323623">
        <ele>159.2</ele>
        <time>2017-08-04T16:08:49Z</time>
      </trkpt>
      <trkpt lat="59.220798918661" lon="17.902720166788">
        <ele>159.6</ele>
        <time>2017-08-04T16:08:50Z</time>
      </trkpt>
      <trkpt lat="59.220810234226" lon="17.902759813175">
        <ele>160</ele>
        <time>2017-08-04T16:08:51Z</time>
      </trkpt>
      <trkpt lat="59.220819621954" lon="17.902799291924">
        <ele>160.4</ele>
        <time>2017-08-04T16:08:52Z</time>
      </trkpt>
      <trkpt lat="59.220829847872" lon="17.902836088465">
        <ele>160.4</ele>
        <time>2017-08-04T16:08:53Z</time>
      </trkpt>
      <trkpt lat="59.220870080992" lon="17.903020238808">
        <ele>160.4</ele>
        <time>2017-08-04T16:08:59Z</time>
      </trkpt>
      <trkpt lat="59.220872260286" lon="17.903032141106">
        <ele>160.4</ele>
        <time>2017-08-04T16:09:00Z</time>
      </trkpt>
      <trkpt lat="59.220888772629" lon="17.903108248758">
        <ele>160.4</ele>
        <time>2017-08-04T16:10:38Z</time>
      </trkpt>
      <trkpt lat="59.220898495633" lon="17.903178824356">
        <ele>160.4</ele>
        <time>2017-08-04T16:10:40Z</time>
      </trkpt>
      <trkpt lat="59.220949289947" lon="17.903529187776">
        <ele>160.4</ele>
        <time>2017-08-04T16:10:46Z</time>
      </trkpt>
      <trkpt lat="59.220997234415" lon="17.903920203411">
        <ele>160.4</ele>
        <time>2017-08-04T16:10:52Z</time>
      </trkpt>
      <trkpt lat="59.221068648203" lon="17.904449520396">
        <ele>160.4</ele>
        <time>2017-08-04T16:10:59Z</time>
      </trkpt>
      <trkpt lat="59.221134110842" lon="17.904968779101">
        <ele>160.4</ele>
        <time>2017-08-04T16:11:06Z</time>
      </trkpt>
      <trkpt lat="59.221147773339" lon="17.905049748255">
        <ele>160</ele>
        <time>2017-08-04T16:11:07Z</time>
      </trkpt>
      <trkpt lat="59.221159675637" lon="17.905131639418">
        <ele>159.2</ele>
        <time>2017-08-04T16:11:08Z</time>
      </trkpt>
      <trkpt lat="59.221167470804" lon="17.905214201133">
        <ele>158.8</ele>
        <time>2017-08-04T16:11:09Z</time>
      </trkpt>
      <trkpt lat="59.221175685066" lon="17.905297014305">
        <ele>158.4</ele>
        <time>2017-08-04T16:11:10Z</time>
      </trkpt>
      <trkpt lat="59.221194879617" lon="17.905451827998">
        <ele>158.4</ele>
        <time>2017-08-04T16:11:12Z</time>
      </trkpt>
      <trkpt lat="59.221258079143" lon="17.905920124751">
        <ele>158.4</ele>
        <time>2017-08-04T16:11:19Z</time>
      </trkpt>
      <trkpt lat="59.221265706672" lon="17.906002015914">
        <ele>157.8</ele>
        <time>2017-08-04T16:11:20Z</time>
      </trkpt>
      <trkpt lat="59.221274004753" lon="17.906088433303">
        <ele>157.4</ele>
        <time>2017-08-04T16:11:21Z</time>
      </trkpt>
      <trkpt lat="59.221284398309" lon="17.906178538728">
        <ele>157</ele>
        <time>2017-08-04T16:11:22Z</time>
      </trkpt>
      <trkpt lat="59.221298312263" lon="17.906269817619">
        <ele>156.4</ele>
        <time>2017-08-04T16:11:23Z</time>
      </trkpt>
      <trkpt lat="59.22131197476" lon="17.906365958012">
        <ele>156</ele>
        <time>2017-08-04T16:11:24Z</time>
      </trkpt>
      <trkpt lat="59.221363607264" lon="17.906744484616">
        <ele>155.6</ele>
        <time>2017-08-04T16:11:28Z</time>
      </trkpt>
      <trkpt lat="59.221378107951" lon="17.906833668032">
        <ele>155.2</ele>
        <time>2017-08-04T16:11:29Z</time>
      </trkpt>
      <trkpt lat="59.221387244222" lon="17.906920923611">
        <ele>154.8</ele>
        <time>2017-08-04T16:11:30Z</time>
      </trkpt>
      <trkpt lat="59.221395039389" lon="17.907010609941">
        <ele>154.2</ele>
        <time>2017-08-04T16:11:31Z</time>
      </trkpt>
      <trkpt lat="59.221402415461" lon="17.907093171656">
        <ele>153.8</ele>
        <time>2017-08-04T16:11:32Z</time>
      </trkpt>
      <trkpt lat="59.221430075731" lon="17.907349993072">
        <ele>153.8</ele>
        <time>2017-08-04T16:11:36Z</time>
      </trkpt>
      <trkpt lat="59.221450611386" lon="17.90755803183">
        <ele>153.8</ele>
        <time>2017-08-04T16:11:40Z</time>
      </trkpt>
      <trkpt lat="59.221456227259" lon="17.907614525836">
        <ele>153.8</ele>
        <time>2017-08-04T16:11:41Z</time>
      </trkpt>
      <trkpt lat="59.221454131784" lon="17.907905629223">
        <ele>153.8</ele>
        <time>2017-08-04T16:11:47Z</time>
      </trkpt>
      <trkpt lat="59.221454550879" lon="17.908038566157">
        <ele>153.8</ele>
        <time>2017-08-04T16:11:52Z</time>
      </trkpt>
      <trkpt lat="59.221430578645" lon="17.9080466966">
        <ele>153.8</ele>
        <time>2017-08-04T16:12:04Z</time>
      </trkpt>
      <trkpt lat="59.221377102123" lon="17.908022556728">
        <ele>153.8</ele>
        <time>2017-08-04T16:12:07Z</time>
      </trkpt>
      <trkpt lat="59.221355728278" lon="17.908021299443">
        <ele>153.8</ele>
        <time>2017-08-04T16:12:08Z</time>
      </trkpt>
      <trkpt lat="59.221217594566" lon="17.908114925266">
        <ele>153.8</ele>
        <time>2017-08-04T16:12:14Z</time>
      </trkpt>
      <trkpt lat="59.221094548274" lon="17.908190530004">
        <ele>153.8</ele>
        <time>2017-08-04T16:12:20Z</time>
      </trkpt>
      <trkpt lat="59.221050794756" lon="17.90819254166">
        <ele>153</ele>
        <time>2017-08-04T16:12:22Z</time>
      </trkpt>
      <trkpt lat="59.221031097291" lon="17.908207796718">
        <ele>152.6</ele>
        <time>2017-08-04T16:12:23Z</time>
      </trkpt>
      <trkpt lat="59.221009555808" lon="17.908228500011">
        <ele>152.2</ele>
        <time>2017-08-04T16:12:24Z</time>
      </trkpt>
      <trkpt lat="59.220983069004" lon="17.908238474472">
        <ele>151.8</ele>
        <time>2017-08-04T16:12:25Z</time>
      </trkpt>
      <trkpt lat="59.22083253008" lon="17.908366382266">
        <ele>151.8</ele>
        <time>2017-08-04T16:12:31Z</time>
      </trkpt>
      <trkpt lat="59.220768911459" lon="17.90840208916">
        <ele>151.4</ele>
        <time>2017-08-04T16:12:33Z</time>
      </trkpt>
      <trkpt lat="59.220735467678" lon="17.908421535168">
        <ele>151</ele>
        <time>2017-08-04T16:12:34Z</time>
      </trkpt>
      <trkpt lat="59.22070261063" lon="17.908441651728">
        <ele>150.6</ele>
        <time>2017-08-04T16:12:35Z</time>
      </trkpt>
      <trkpt lat="59.220672184333" lon="17.908466965066">
        <ele>150</ele>
        <time>2017-08-04T16:12:36Z</time>
      </trkpt>
      <trkpt lat="59.220644272606" lon="17.90849848101">
        <ele>149.6</ele>
        <time>2017-08-04T16:12:37Z</time>
      </trkpt>
      <trkpt lat="59.220586688953" lon="17.908610044099">
        <ele>149.6</ele>
        <time>2017-08-04T16:12:41Z</time>
      </trkpt>
      <trkpt lat="59.220483675402" lon="17.908622784587">
        <ele>149.6</ele>
        <time>2017-08-04T16:12:46Z</time>
      </trkpt>
      <trkpt lat="59.220382589688" lon="17.908503342512">
        <ele>149.2</ele>
        <time>2017-08-04T16:12:50Z</time>
      </trkpt>
      <trkpt lat="59.220363395137" lon="17.9084741735">
        <ele>148.8</ele>
        <time>2017-08-04T16:12:51Z</time>
      </trkpt>
      <trkpt lat="59.220346296061" lon="17.908442992832">
        <ele>148.4</ele>
        <time>2017-08-04T16:12:52Z</time>
      </trkpt>
      <trkpt lat="59.220331963012" lon="17.908413991458">
        <ele>148</ele>
        <time>2017-08-04T16:12:53Z</time>
      </trkpt>
      <trkpt lat="59.220320563628" lon="17.908379122754">
        <ele>147.6</ele>
        <time>2017-08-04T16:12:54Z</time>
      </trkpt>
      <trkpt lat="59.220274798454" lon="17.908281976533">
        <ele>147.6</ele>
        <time>2017-08-04T16:12:57Z</time>
      </trkpt>
      <trkpt lat="59.220120990589" lon="17.908028926972">
        <ele>147.6</ele>
        <time>2017-08-04T16:13:05Z</time>
      </trkpt>
      <trkpt lat="59.22001697121" lon="17.907790294279">
        <ele>147.6</ele>
        <time>2017-08-04T16:13:11Z</time>
      </trkpt>
      <trkpt lat="59.219941785567" lon="17.90759742676">
        <ele>147.6</ele>
        <time>2017-08-04T16:13:17Z</time>
      </trkpt>
      <trkpt lat="59.219920327903" lon="17.907525174782">
        <ele>147.6</ele>
        <time>2017-08-04T16:13:21Z</time>
      </trkpt>
      <trkpt lat="59.219906833044" lon="17.907499107073">
        <ele>147.6</ele>
        <time>2017-08-04T16:13:23Z</time>
      </trkpt>
      <trkpt lat="59.219872886349" lon="17.907403134318">
        <ele>147.6</ele>
        <time>2017-08-04T16:13:26Z</time>
      </trkpt>
      <trkpt lat="59.219848578839" lon="17.907334151281">
        <ele>147.6</ele>
        <time>2017-08-04T16:13:28Z</time>
      </trkpt>
      <trkpt lat="59.219777165051" lon="17.907167267652">
        <ele>147.6</ele>
        <time>2017-08-04T16:13:33Z</time>
      </trkpt>
      <trkpt lat="59.219743469813" lon="17.907076156399">
        <ele>147.6</ele>
        <time>2017-08-04T16:13:37Z</time>
      </trkpt>
      <trkpt lat="59.219757383767" lon="17.907064002644">
        <ele>147.6</ele>
        <time>2017-08-04T16:13:39Z</time>
      </trkpt>
    </trkseg>
  </trk>
</gpx>